sensor_id;sensor_type;location;lat;lon;timestamp;P1;durP1;ratioP1;P2;durP2;ratioP2
78618;SDS011;67941;52.506;5.470;2023-05-07T00:00:06;2.80;;;1.10;;
78618;SDS011;67941;52.506;5.470;2023-05-07T00:02:36;3.22;;;1.30;;
78618;SDS011;67941;52.506;5.470;2023-05-07T00:05:06;4.15;;;2.50;;
78618;SDS011;67941;52.506;5.470;2023-05-07T00:07:35;3.88;;;1.30;;
78618;SDS011;67941;52.506;5.470;2023-05-07T00:10:05;3.05;;;1.10;;
78618;SDS011;67941;52.506;5.470;2023-05-07T00:12:35;4.05;;;1.52;;
78618;SDS011;67941;52.506;5.470;2023-05-07T00:15:07;3.83;;;1.88;;
78618;SDS011;67941;52.506;5.470;2023-05-07T00:17:36;1.40;;;0.70;;
78618;SDS011;67941;52.506;5.470;2023-05-07T00:20:06;3.80;;;1.40;;
78618;SDS011;67941;52.506;5.470;2023-05-07T00:22:36;4.20;;;1.70;;
78618;SDS011;67941;52.506;5.470;2023-05-07T00:25:05;2.58;;;0.77;;
78618;SDS011;67941;52.506;5.470;2023-05-07T00:27:35;2.17;;;1.23;;
78618;SDS011;67941;52.506;5.470;2023-05-07T00:30:07;2.72;;;0.98;;
78618;SDS011;67941;52.506;5.470;2023-05-07T00:32:37;3.25;;;1.70;;
78618;SDS011;67941;52.506;5.470;2023-05-07T00:35:07;3.72;;;1.77;;
78618;SDS011;67941;52.506;5.470;2023-05-07T00:37:36;3.58;;;1.45;;
78618;SDS011;67941;52.506;5.470;2023-05-07T00:40:06;3.67;;;2.00;;
78618;SDS011;67941;52.506;5.470;2023-05-07T00:42:37;2.45;;;1.20;;
78618;SDS011;67941;52.506;5.470;2023-05-07T00:45:09;1.17;;;0.50;;
78618;SDS011;67941;52.506;5.470;2023-05-07T00:47:38;2.53;;;1.20;;
78618;SDS011;67941;52.506;5.470;2023-05-07T00:50:08;2.60;;;1.10;;
78618;SDS011;67941;52.506;5.470;2023-05-07T00:52:37;1.25;;;0.50;;
78618;SDS011;67941;52.506;5.470;2023-05-07T00:55:07;3.42;;;2.00;;
78618;SDS011;67941;52.506;5.470;2023-05-07T00:57:37;1.48;;;0.50;;
78618;SDS011;67941;52.506;5.470;2023-05-07T01:00:10;2.60;;;1.20;;
78618;SDS011;67941;52.506;5.470;2023-05-07T01:02:40;4.28;;;1.20;;
78618;SDS011;67941;52.506;5.470;2023-05-07T01:05:10;4.32;;;2.10;;
78618;SDS011;67941;52.506;5.470;2023-05-07T01:07:40;1.48;;;0.75;;
78618;SDS011;67941;52.506;5.470;2023-05-07T01:10:11;2.47;;;0.80;;
78618;SDS011;67941;52.506;5.470;2023-05-07T01:12:40;2.08;;;0.93;;
78618;SDS011;67941;52.506;5.470;2023-05-07T01:15:13;2.78;;;1.10;;
78618;SDS011;67941;52.506;5.470;2023-05-07T01:17:43;2.25;;;0.80;;
78618;SDS011;67941;52.506;5.470;2023-05-07T01:20:19;1.52;;;0.70;;
78618;SDS011;67941;52.506;5.470;2023-05-07T01:22:53;1.40;;;0.55;;
78618;SDS011;67941;52.506;5.470;2023-05-07T01:25:22;2.17;;;1.00;;
78618;SDS011;67941;52.506;5.470;2023-05-07T01:27:55;1.58;;;0.52;;
78618;SDS011;67941;52.506;5.470;2023-05-07T01:30:28;4.18;;;1.35;;
78618;SDS011;67941;52.506;5.470;2023-05-07T01:32:58;2.47;;;0.90;;
78618;SDS011;67941;52.506;5.470;2023-05-07T01:35:34;4.40;;;1.30;;
78618;SDS011;67941;52.506;5.470;2023-05-07T01:38:09;2.05;;;0.90;;
78618;SDS011;67941;52.506;5.470;2023-05-07T01:40:38;2.05;;;0.85;;
78618;SDS011;67941;52.506;5.470;2023-05-07T01:43:07;2.13;;;1.42;;
78618;SDS011;67941;52.506;5.470;2023-05-07T01:45:37;1.95;;;1.05;;
78618;SDS011;67941;52.506;5.470;2023-05-07T01:48:07;2.47;;;1.15;;
78618;SDS011;67941;52.506;5.470;2023-05-07T01:50:38;2.08;;;1.27;;
78618;SDS011;67941;52.506;5.470;2023-05-07T01:53:10;2.63;;;1.20;;
78618;SDS011;67941;52.506;5.470;2023-05-07T01:55:38;4.20;;;1.10;;
78618;SDS011;67941;52.506;5.470;2023-05-07T01:58:08;1.90;;;0.98;;
78618;SDS011;67941;52.506;5.470;2023-05-07T02:00:37;1.23;;;0.50;;
78618;SDS011;67941;52.506;5.470;2023-05-07T02:03:06;3.15;;;1.63;;
78618;SDS011;67941;52.506;5.470;2023-05-07T02:05:50;2.25;;;1.10;;
78618;SDS011;67941;52.506;5.470;2023-05-07T02:08:31;2.03;;;0.88;;
78618;SDS011;67941;52.506;5.470;2023-05-07T02:11:01;2.67;;;1.00;;
78618;SDS011;67941;52.506;5.470;2023-05-07T02:13:31;3.25;;;1.33;;
78618;SDS011;67941;52.506;5.470;2023-05-07T02:16:01;3.38;;;1.38;;
78618;SDS011;67941;52.506;5.470;2023-05-07T02:18:30;4.05;;;1.38;;
78618;SDS011;67941;52.506;5.470;2023-05-07T02:21:01;3.45;;;1.45;;
78618;SDS011;67941;52.506;5.470;2023-05-07T02:23:32;3.65;;;2.00;;
78618;SDS011;67941;52.506;5.470;2023-05-07T02:26:01;3.85;;;1.63;;
78618;SDS011;67941;52.506;5.470;2023-05-07T02:28:30;1.45;;;1.10;;
78618;SDS011;67941;52.506;5.470;2023-05-07T02:31:02;3.33;;;1.20;;
78618;SDS011;67941;52.506;5.470;2023-05-07T02:33:32;2.20;;;1.00;;
78618;SDS011;67941;52.506;5.470;2023-05-07T02:36:07;5.35;;;1.10;;
78618;SDS011;67941;52.506;5.470;2023-05-07T02:38:56;2.50;;;1.40;;
78618;SDS011;67941;52.506;5.470;2023-05-07T02:41:27;3.15;;;1.55;;
78618;SDS011;67941;52.506;5.470;2023-05-07T02:43:56;2.58;;;1.35;;
78618;SDS011;67941;52.506;5.470;2023-05-07T02:46:25;3.22;;;1.30;;
78618;SDS011;67941;52.506;5.470;2023-05-07T02:49:04;4.18;;;1.55;;
78618;SDS011;67941;52.506;5.470;2023-05-07T02:51:33;2.67;;;1.10;;
78618;SDS011;67941;52.506;5.470;2023-05-07T02:54:09;2.95;;;1.05;;
78618;SDS011;67941;52.506;5.470;2023-05-07T02:56:37;2.42;;;0.68;;
78618;SDS011;67941;52.506;5.470;2023-05-07T02:59:06;3.80;;;1.73;;
78618;SDS011;67941;52.506;5.470;2023-05-07T03:04:09;3.47;;;1.33;;
78618;SDS011;67941;52.506;5.470;2023-05-07T03:06:38;2.55;;;1.08;;
78618;SDS011;67941;52.506;5.470;2023-05-07T03:09:10;2.92;;;1.45;;
78618;SDS011;67941;52.506;5.470;2023-05-07T03:11:38;2.83;;;1.45;;
78618;SDS011;67941;52.506;5.470;2023-05-07T03:14:07;4.72;;;1.70;;
78618;SDS011;67941;52.506;5.470;2023-05-07T03:16:37;1.95;;;0.98;;
78618;SDS011;67941;52.506;5.470;2023-05-07T03:19:06;1.15;;;0.47;;
78618;SDS011;67941;52.506;5.470;2023-05-07T03:21:35;3.72;;;2.05;;
78618;SDS011;67941;52.506;5.470;2023-05-07T03:24:04;3.20;;;1.27;;
78618;SDS011;67941;52.506;5.470;2023-05-07T03:26:36;2.50;;;1.10;;
78618;SDS011;67941;52.506;5.470;2023-05-07T03:29:05;4.50;;;2.05;;
78618;SDS011;67941;52.506;5.470;2023-05-07T03:31:33;2.38;;;0.98;;
78618;SDS011;67941;52.506;5.470;2023-05-07T03:34:02;2.50;;;1.33;;
78618;SDS011;67941;52.506;5.470;2023-05-07T03:36:32;2.92;;;1.25;;
78618;SDS011;67941;52.506;5.470;2023-05-07T03:39:02;3.47;;;2.15;;
78618;SDS011;67941;52.506;5.470;2023-05-07T03:41:39;3.42;;;1.85;;
78618;SDS011;67941;52.506;5.470;2023-05-07T03:44:08;3.80;;;1.85;;
78618;SDS011;67941;52.506;5.470;2023-05-07T03:46:38;3.33;;;1.45;;
78618;SDS011;67941;52.506;5.470;2023-05-07T03:49:09;3.50;;;1.60;;
78618;SDS011;67941;52.506;5.470;2023-05-07T03:51:38;4.70;;;2.03;;
78618;SDS011;67941;52.506;5.470;2023-05-07T03:54:07;4.80;;;2.05;;
78618;SDS011;67941;52.506;5.470;2023-05-07T03:56:43;3.75;;;1.95;;
78618;SDS011;67941;52.506;5.470;2023-05-07T03:59:12;4.93;;;1.95;;
78618;SDS011;67941;52.506;5.470;2023-05-07T04:01:42;4.35;;;2.08;;
78618;SDS011;67941;52.506;5.470;2023-05-07T04:04:15;6.22;;;3.15;;
78618;SDS011;67941;52.506;5.470;2023-05-07T04:06:44;5.85;;;2.30;;
78618;SDS011;67941;52.506;5.470;2023-05-07T04:09:13;5.38;;;2.00;;
78618;SDS011;67941;52.506;5.470;2023-05-07T04:11:44;5.05;;;2.83;;
78618;SDS011;67941;52.506;5.470;2023-05-07T04:14:13;4.93;;;2.05;;
78618;SDS011;67941;52.506;5.470;2023-05-07T04:16:42;6.55;;;2.20;;
78618;SDS011;67941;52.506;5.470;2023-05-07T04:19:11;6.88;;;2.75;;
78618;SDS011;67941;52.506;5.470;2023-05-07T04:21:40;4.63;;;2.55;;
78618;SDS011;67941;52.506;5.470;2023-05-07T04:24:09;6.80;;;3.53;;
78618;SDS011;67941;52.506;5.470;2023-05-07T04:26:38;7.35;;;2.88;;
78618;SDS011;67941;52.506;5.470;2023-05-07T04:29:10;6.25;;;2.33;;
78618;SDS011;67941;52.506;5.470;2023-05-07T04:31:39;6.20;;;2.83;;
78618;SDS011;67941;52.506;5.470;2023-05-07T04:34:10;6.15;;;2.63;;
78618;SDS011;67941;52.506;5.470;2023-05-07T04:36:39;6.75;;;3.22;;
78618;SDS011;67941;52.506;5.470;2023-05-07T04:39:12;5.07;;;2.30;;
78618;SDS011;67941;52.506;5.470;2023-05-07T04:41:43;6.22;;;2.60;;
78618;SDS011;67941;52.506;5.470;2023-05-07T04:44:15;6.03;;;2.25;;
78618;SDS011;67941;52.506;5.470;2023-05-07T04:49:13;8.85;;;2.75;;
78618;SDS011;67941;52.506;5.470;2023-05-07T04:51:42;5.97;;;3.17;;
78618;SDS011;67941;52.506;5.470;2023-05-07T04:54:13;5.80;;;2.20;;
78618;SDS011;67941;52.506;5.470;2023-05-07T04:56:42;6.03;;;2.55;;
78618;SDS011;67941;52.506;5.470;2023-05-07T04:59:11;7.47;;;2.83;;
78618;SDS011;67941;52.506;5.470;2023-05-07T05:01:43;8.38;;;4.05;;
78618;SDS011;67941;52.506;5.470;2023-05-07T05:04:12;6.68;;;2.88;;
78618;SDS011;67941;52.506;5.470;2023-05-07T05:06:41;8.10;;;3.10;;
78618;SDS011;67941;52.506;5.470;2023-05-07T05:09:11;7.15;;;2.72;;
78618;SDS011;67941;52.506;5.470;2023-05-07T05:11:41;6.40;;;3.50;;
78618;SDS011;67941;52.506;5.470;2023-05-07T05:14:10;6.50;;;2.53;;
78618;SDS011;67941;52.506;5.470;2023-05-07T05:16:42;7.07;;;3.13;;
78618;SDS011;67941;52.506;5.470;2023-05-07T05:19:12;7.53;;;3.30;;
78618;SDS011;67941;52.506;5.470;2023-05-07T05:21:43;6.57;;;2.67;;
78618;SDS011;67941;52.506;5.470;2023-05-07T05:24:12;6.95;;;2.95;;
78618;SDS011;67941;52.506;5.470;2023-05-07T05:26:42;7.15;;;2.97;;
78618;SDS011;67941;52.506;5.470;2023-05-07T05:29:11;7.68;;;3.70;;
78618;SDS011;67941;52.506;5.470;2023-05-07T05:31:44;7.72;;;3.72;;
78618;SDS011;67941;52.506;5.470;2023-05-07T05:34:12;7.43;;;3.17;;
78618;SDS011;67941;52.506;5.470;2023-05-07T05:36:43;7.60;;;3.63;;
78618;SDS011;67941;52.506;5.470;2023-05-07T05:39:13;9.30;;;4.13;;
78618;SDS011;67941;52.506;5.470;2023-05-07T05:41:43;5.38;;;2.42;;
78618;SDS011;67941;52.506;5.470;2023-05-07T05:44:13;6.20;;;2.50;;
78618;SDS011;67941;52.506;5.470;2023-05-07T05:46:45;5.97;;;2.58;;
78618;SDS011;67941;52.506;5.470;2023-05-07T05:49:14;9.00;;;3.45;;
78618;SDS011;67941;52.506;5.470;2023-05-07T05:51:44;7.60;;;3.22;;
78618;SDS011;67941;52.506;5.470;2023-05-07T05:54:13;7.63;;;3.13;;
78618;SDS011;67941;52.506;5.470;2023-05-07T05:56:42;5.97;;;2.67;;
78618;SDS011;67941;52.506;5.470;2023-05-07T05:59:12;8.18;;;2.78;;
78618;SDS011;67941;52.506;5.470;2023-05-07T06:01:41;5.80;;;2.38;;
78618;SDS011;67941;52.506;5.470;2023-05-07T06:04:13;7.22;;;2.92;;
78618;SDS011;67941;52.506;5.470;2023-05-07T06:06:42;7.65;;;3.17;;
78618;SDS011;67941;52.506;5.470;2023-05-07T06:09:11;6.50;;;3.50;;
78618;SDS011;67941;52.506;5.470;2023-05-07T06:11:42;7.88;;;3.42;;
78618;SDS011;67941;52.506;5.470;2023-05-07T06:14:12;7.38;;;3.22;;
78618;SDS011;67941;52.506;5.470;2023-05-07T06:16:41;10.57;;;5.03;;
78618;SDS011;67941;52.506;5.470;2023-05-07T06:19:13;7.68;;;3.65;;
78618;SDS011;67941;52.506;5.470;2023-05-07T06:21:44;7.60;;;2.78;;
78618;SDS011;67941;52.506;5.470;2023-05-07T06:24:31;6.80;;;2.75;;
78618;SDS011;67941;52.506;5.470;2023-05-07T06:27:00;7.05;;;3.65;;
78618;SDS011;67941;52.506;5.470;2023-05-07T06:29:30;8.05;;;3.40;;
78618;SDS011;67941;52.506;5.470;2023-05-07T06:32:07;7.78;;;3.35;;
78618;SDS011;67941;52.506;5.470;2023-05-07T06:34:40;8.98;;;4.38;;
78618;SDS011;67941;52.506;5.470;2023-05-07T06:37:10;6.47;;;3.30;;
78618;SDS011;67941;52.506;5.470;2023-05-07T06:39:54;9.25;;;3.95;;
78618;SDS011;67941;52.506;5.470;2023-05-07T06:42:23;8.52;;;4.53;;
78618;SDS011;67941;52.506;5.470;2023-05-07T06:44:57;6.53;;;3.13;;
78618;SDS011;67941;52.506;5.470;2023-05-07T06:47:29;8.25;;;3.72;;
78618;SDS011;67941;52.506;5.470;2023-05-07T06:50:00;6.85;;;2.80;;
78618;SDS011;67941;52.506;5.470;2023-05-07T06:52:31;9.20;;;4.00;;
78618;SDS011;67941;52.506;5.470;2023-05-07T06:55:01;6.70;;;3.13;;
78618;SDS011;67941;52.506;5.470;2023-05-07T06:57:30;5.82;;;2.28;;
78618;SDS011;67941;52.506;5.470;2023-05-07T06:59:59;6.82;;;3.33;;
78618;SDS011;67941;52.506;5.470;2023-05-07T07:02:28;7.20;;;3.13;;
78618;SDS011;67941;52.506;5.470;2023-05-07T07:04:57;6.40;;;2.83;;
78618;SDS011;67941;52.506;5.470;2023-05-07T07:07:28;6.35;;;2.72;;
78618;SDS011;67941;52.506;5.470;2023-05-07T07:09:58;8.60;;;3.55;;
78618;SDS011;67941;52.506;5.470;2023-05-07T07:12:28;7.57;;;3.55;;
78618;SDS011;67941;52.506;5.470;2023-05-07T07:14:57;8.88;;;3.00;;
78618;SDS011;67941;52.506;5.470;2023-05-07T07:17:26;8.55;;;4.07;;
78618;SDS011;67941;52.506;5.470;2023-05-07T07:19:55;9.25;;;3.83;;
78618;SDS011;67941;52.506;5.470;2023-05-07T07:22:24;7.38;;;3.63;;
78618;SDS011;67941;52.506;5.470;2023-05-07T07:24:56;7.25;;;4.07;;
78618;SDS011;67941;52.506;5.470;2023-05-07T07:27:25;6.40;;;2.78;;
78618;SDS011;67941;52.506;5.470;2023-05-07T07:29:54;7.38;;;3.00;;
78618;SDS011;67941;52.506;5.470;2023-05-07T07:32:23;6.78;;;3.22;;
78618;SDS011;67941;52.506;5.470;2023-05-07T07:34:53;9.68;;;3.80;;
78618;SDS011;67941;52.506;5.470;2023-05-07T07:37:22;7.28;;;3.17;;
78618;SDS011;67941;52.506;5.470;2023-05-07T07:39:51;5.20;;;2.13;;
78618;SDS011;67941;52.506;5.470;2023-05-07T07:42:23;7.35;;;3.25;;
78618;SDS011;67941;52.506;5.470;2023-05-07T07:44:52;8.77;;;3.70;;
78618;SDS011;67941;52.506;5.470;2023-05-07T07:47:23;6.72;;;2.88;;
78618;SDS011;67941;52.506;5.470;2023-05-07T07:49:52;7.40;;;3.00;;
78618;SDS011;67941;52.506;5.470;2023-05-07T07:52:21;6.43;;;2.80;;
78618;SDS011;67941;52.506;5.470;2023-05-07T07:54:51;6.80;;;3.15;;
78618;SDS011;67941;52.506;5.470;2023-05-07T07:57:23;8.02;;;3.22;;
78618;SDS011;67941;52.506;5.470;2023-05-07T07:59:52;7.15;;;2.88;;
78618;SDS011;67941;52.506;5.470;2023-05-07T08:02:21;6.07;;;2.38;;
78618;SDS011;67941;52.506;5.470;2023-05-07T08:04:50;8.98;;;4.97;;
78618;SDS011;67941;52.506;5.470;2023-05-07T08:07:19;8.38;;;3.97;;
78618;SDS011;67941;52.506;5.470;2023-05-07T08:09:48;7.85;;;4.20;;
78618;SDS011;67941;52.506;5.470;2023-05-07T08:12:23;7.60;;;3.40;;
78618;SDS011;67941;52.506;5.470;2023-05-07T08:14:53;7.32;;;3.13;;
78618;SDS011;67941;52.506;5.470;2023-05-07T08:17:22;6.65;;;2.83;;
78618;SDS011;67941;52.506;5.470;2023-05-07T08:20:09;8.93;;;3.67;;
78618;SDS011;67941;52.506;5.470;2023-05-07T08:22:39;7.38;;;3.70;;
78618;SDS011;67941;52.506;5.470;2023-05-07T08:25:09;6.22;;;2.80;;
78618;SDS011;67941;52.506;5.470;2023-05-07T08:27:40;5.70;;;3.10;;
78618;SDS011;67941;52.506;5.470;2023-05-07T08:30:11;6.22;;;2.97;;
78618;SDS011;67941;52.506;5.470;2023-05-07T08:32:41;7.95;;;3.33;;
78618;SDS011;67941;52.506;5.470;2023-05-07T08:35:10;7.50;;;3.70;;
78618;SDS011;67941;52.506;5.470;2023-05-07T08:37:38;8.98;;;4.53;;
78618;SDS011;67941;52.506;5.470;2023-05-07T08:40:08;8.60;;;3.90;;
78618;SDS011;67941;52.506;5.470;2023-05-07T08:42:40;7.10;;;3.28;;
78618;SDS011;67941;52.506;5.470;2023-05-07T08:45:11;7.93;;;3.55;;
78618;SDS011;67941;52.506;5.470;2023-05-07T08:47:43;7.70;;;3.85;;
78618;SDS011;67941;52.506;5.470;2023-05-07T08:50:17;7.75;;;3.75;;
78618;SDS011;67941;52.506;5.470;2023-05-07T08:52:47;7.90;;;3.97;;
78618;SDS011;67941;52.506;5.470;2023-05-07T08:55:17;6.50;;;3.38;;
78618;SDS011;67941;52.506;5.470;2023-05-07T08:57:50;6.28;;;3.17;;
78618;SDS011;67941;52.506;5.470;2023-05-07T09:00:20;7.03;;;3.17;;
78618;SDS011;67941;52.506;5.470;2023-05-07T09:02:53;7.88;;;3.85;;
78618;SDS011;67941;52.506;5.470;2023-05-07T09:05:22;8.00;;;3.75;;
78618;SDS011;67941;52.506;5.470;2023-05-07T09:07:51;7.10;;;3.78;;
78618;SDS011;67941;52.506;5.470;2023-05-07T09:10:22;8.18;;;3.78;;
78618;SDS011;67941;52.506;5.470;2023-05-07T09:12:54;6.90;;;3.50;;
78618;SDS011;67941;52.506;5.470;2023-05-07T09:15:23;8.45;;;4.25;;
78618;SDS011;67941;52.506;5.470;2023-05-07T09:17:53;7.97;;;3.67;;
78618;SDS011;67941;52.506;5.470;2023-05-07T09:20:21;7.85;;;3.70;;
78618;SDS011;67941;52.506;5.470;2023-05-07T09:22:51;8.02;;;4.25;;
78618;SDS011;67941;52.506;5.470;2023-05-07T09:25:27;8.48;;;4.10;;
78618;SDS011;67941;52.506;5.470;2023-05-07T09:28:02;7.68;;;3.78;;
78618;SDS011;67941;52.506;5.470;2023-05-07T09:30:33;7.15;;;3.60;;
78618;SDS011;67941;52.506;5.470;2023-05-07T09:33:05;7.45;;;4.03;;
78618;SDS011;67941;52.506;5.470;2023-05-07T09:35:37;8.82;;;4.03;;
78618;SDS011;67941;52.506;5.470;2023-05-07T09:38:12;7.43;;;3.60;;
78618;SDS011;67941;52.506;5.470;2023-05-07T09:40:42;6.60;;;3.33;;
78618;SDS011;67941;52.506;5.470;2023-05-07T09:43:16;7.75;;;4.47;;
78618;SDS011;67941;52.506;5.470;2023-05-07T09:48:23;6.82;;;2.83;;
78618;SDS011;67941;52.506;5.470;2023-05-07T09:50:55;6.00;;;2.97;;
78618;SDS011;67941;52.506;5.470;2023-05-07T09:53:32;7.45;;;3.88;;
78618;SDS011;67941;52.506;5.470;2023-05-07T09:56:04;8.77;;;3.95;;
78618;SDS011;67941;52.506;5.470;2023-05-07T09:58:36;7.90;;;3.55;;
78618;SDS011;67941;52.506;5.470;2023-05-07T10:01:07;6.53;;;2.90;;
78618;SDS011;67941;52.506;5.470;2023-05-07T10:03:40;7.25;;;3.15;;
78618;SDS011;67941;52.506;5.470;2023-05-07T10:06:09;7.70;;;3.70;;
78618;SDS011;67941;52.506;5.470;2023-05-07T10:08:40;6.30;;;3.08;;
78618;SDS011;67941;52.506;5.470;2023-05-07T10:11:10;10.23;;;3.47;;
78618;SDS011;67941;52.506;5.470;2023-05-07T10:13:44;6.70;;;3.42;;
78618;SDS011;67941;52.506;5.470;2023-05-07T10:16:15;6.00;;;2.95;;
78618;SDS011;67941;52.506;5.470;2023-05-07T10:18:47;6.95;;;3.10;;
78618;SDS011;67941;52.506;5.470;2023-05-07T10:21:21;7.07;;;3.42;;
78618;SDS011;67941;52.506;5.470;2023-05-07T10:23:58;6.10;;;3.42;;
78618;SDS011;67941;52.506;5.470;2023-05-07T10:26:32;7.43;;;4.05;;
78618;SDS011;67941;52.506;5.470;2023-05-07T10:31:44;6.32;;;3.38;;
78618;SDS011;67941;52.506;5.470;2023-05-07T10:34:20;8.48;;;4.35;;
78618;SDS011;67941;52.506;5.470;2023-05-07T10:36:53;9.13;;;4.10;;
78618;SDS011;67941;52.506;5.470;2023-05-07T10:39:23;6.68;;;3.22;;
78618;SDS011;67941;52.506;5.470;2023-05-07T10:41:52;6.80;;;3.28;;
78618;SDS011;67941;52.506;5.470;2023-05-07T10:44:28;7.57;;;3.58;;
78618;SDS011;67941;52.506;5.470;2023-05-07T10:47:05;7.82;;;3.90;;
78618;SDS011;67941;52.506;5.470;2023-05-07T10:49:37;7.97;;;3.50;;
78618;SDS011;67941;52.506;5.470;2023-05-07T10:52:41;7.43;;;3.90;;
78618;SDS011;67941;52.506;5.470;2023-05-07T10:55:21;7.22;;;3.22;;
78618;SDS011;67941;52.506;5.470;2023-05-07T10:58:02;6.18;;;2.92;;
78618;SDS011;67941;52.506;5.470;2023-05-07T11:00:58;7.18;;;2.83;;
78618;SDS011;67941;52.506;5.470;2023-05-07T11:03:36;5.35;;;2.40;;
78618;SDS011;67941;52.506;5.470;2023-05-07T11:09:58;4.57;;;2.00;;
78618;SDS011;67941;52.506;5.470;2023-05-07T11:12:48;6.03;;;2.17;;
78618;SDS011;67941;52.506;5.470;2023-05-07T11:15:36;4.50;;;2.03;;
78618;SDS011;67941;52.506;5.470;2023-05-07T11:18:25;5.45;;;2.85;;
78618;SDS011;67941;52.506;5.470;2023-05-07T11:21:31;6.05;;;2.88;;
78618;SDS011;67941;52.506;5.470;2023-05-07T11:24:16;5.47;;;2.80;;
78618;SDS011;67941;52.506;5.470;2023-05-07T11:26:57;4.93;;;2.35;;
78618;SDS011;67941;52.506;5.470;2023-05-07T11:29:28;8.38;;;3.25;;
78618;SDS011;67941;52.506;5.470;2023-05-07T11:32:04;5.07;;;2.55;;
78618;SDS011;67941;52.506;5.470;2023-05-07T11:34:48;6.45;;;2.30;;
78618;SDS011;67941;52.506;5.470;2023-05-07T11:37:20;4.43;;;1.90;;
78618;SDS011;67941;52.506;5.470;2023-05-07T11:40:03;4.43;;;2.47;;
78618;SDS011;67941;52.506;5.470;2023-05-07T11:42:33;6.18;;;2.10;;
78618;SDS011;67941;52.506;5.470;2023-05-07T11:45:04;4.40;;;2.15;;
78618;SDS011;67941;52.506;5.470;2023-05-07T11:47:34;4.15;;;2.13;;
78618;SDS011;67941;52.506;5.470;2023-05-07T11:50:07;4.95;;;1.83;;
78618;SDS011;67941;52.506;5.470;2023-05-07T11:52:36;4.63;;;2.05;;
78618;SDS011;67941;52.506;5.470;2023-05-07T11:55:06;4.80;;;2.13;;
78618;SDS011;67941;52.506;5.470;2023-05-07T11:57:35;4.35;;;1.73;;
78618;SDS011;67941;52.506;5.470;2023-05-07T12:00:05;4.13;;;1.77;;
78618;SDS011;67941;52.506;5.470;2023-05-07T12:02:41;4.50;;;2.00;;
78618;SDS011;67941;52.506;5.470;2023-05-07T12:05:13;4.63;;;2.15;;
78618;SDS011;67941;52.506;5.470;2023-05-07T12:07:42;4.25;;;1.65;;
78618;SDS011;67941;52.506;5.470;2023-05-07T12:10:11;5.05;;;2.67;;
78618;SDS011;67941;52.506;5.470;2023-05-07T12:12:41;4.75;;;1.85;;
78618;SDS011;67941;52.506;5.470;2023-05-07T12:15:15;4.97;;;2.20;;
78618;SDS011;67941;52.506;5.470;2023-05-07T12:17:45;4.95;;;2.20;;
78618;SDS011;67941;52.506;5.470;2023-05-07T12:20:16;5.07;;;2.22;;
78618;SDS011;67941;52.506;5.470;2023-05-07T12:22:45;5.28;;;1.98;;
78618;SDS011;67941;52.506;5.470;2023-05-07T12:25:18;4.50;;;2.05;;
78618;SDS011;67941;52.506;5.470;2023-05-07T12:27:51;4.50;;;2.22;;
78618;SDS011;67941;52.506;5.470;2023-05-07T12:30:20;5.57;;;2.35;;
78618;SDS011;67941;52.506;5.470;2023-05-07T12:32:51;4.22;;;1.92;;
78618;SDS011;67941;52.506;5.470;2023-05-07T12:35:28;4.85;;;1.92;;
78618;SDS011;67941;52.506;5.470;2023-05-07T12:37:58;5.57;;;2.38;;
78618;SDS011;67941;52.506;5.470;2023-05-07T12:40:35;9.88;;;2.72;;
78618;SDS011;67941;52.506;5.470;2023-05-07T12:43:04;4.35;;;2.10;;
78618;SDS011;67941;52.506;5.470;2023-05-07T12:45:36;4.50;;;1.98;;
78618;SDS011;67941;52.506;5.470;2023-05-07T12:48:06;3.25;;;1.52;;
78618;SDS011;67941;52.506;5.470;2023-05-07T12:50:40;4.88;;;2.58;;
78618;SDS011;67941;52.506;5.470;2023-05-07T12:53:09;5.30;;;2.00;;
78618;SDS011;67941;52.506;5.470;2023-05-07T12:55:41;5.47;;;1.83;;
78618;SDS011;67941;52.506;5.470;2023-05-07T12:58:14;2.83;;;1.48;;
78618;SDS011;67941;52.506;5.470;2023-05-07T13:00:45;3.42;;;1.77;;
78618;SDS011;67941;52.506;5.470;2023-05-07T13:03:23;5.10;;;2.45;;
78618;SDS011;67941;52.506;5.470;2023-05-07T13:05:58;5.38;;;2.42;;
78618;SDS011;67941;52.506;5.470;2023-05-07T13:08:31;4.38;;;2.05;;
78618;SDS011;67941;52.506;5.470;2023-05-07T13:11:03;6.72;;;2.75;;
78618;SDS011;67941;52.506;5.470;2023-05-07T13:13:32;6.43;;;2.55;;
78618;SDS011;67941;52.506;5.470;2023-05-07T13:16:03;5.35;;;2.40;;
78618;SDS011;67941;52.506;5.470;2023-05-07T13:18:33;6.72;;;2.63;;
78618;SDS011;67941;52.506;5.470;2023-05-07T13:21:05;5.60;;;2.55;;
78618;SDS011;67941;52.506;5.470;2023-05-07T13:23:35;6.70;;;2.58;;
78618;SDS011;67941;52.506;5.470;2023-05-07T13:26:04;6.20;;;2.83;;
78618;SDS011;67941;52.506;5.470;2023-05-07T13:28:33;5.85;;;2.47;;
78618;SDS011;67941;52.506;5.470;2023-05-07T13:31:01;6.15;;;3.03;;
78618;SDS011;67941;52.506;5.470;2023-05-07T13:33:30;5.57;;;2.75;;
78618;SDS011;67941;52.506;5.470;2023-05-07T13:35:59;5.40;;;2.40;;
78618;SDS011;67941;52.506;5.470;2023-05-07T13:38:32;6.85;;;3.15;;
78618;SDS011;67941;52.506;5.470;2023-05-07T13:41:01;7.15;;;3.13;;
78618;SDS011;67941;52.506;5.470;2023-05-07T13:43:30;7.40;;;2.83;;
78618;SDS011;67941;52.506;5.470;2023-05-07T13:45:59;5.93;;;2.55;;
78618;SDS011;67941;52.506;5.470;2023-05-07T13:48:28;5.10;;;2.10;;
78618;SDS011;67941;52.506;5.470;2023-05-07T13:50:57;5.75;;;1.90;;
78618;SDS011;67941;52.506;5.470;2023-05-07T13:53:26;3.05;;;1.33;;
78618;SDS011;67941;52.506;5.470;2023-05-07T13:55:58;4.15;;;1.80;;
78618;SDS011;67941;52.506;5.470;2023-05-07T13:58:27;4.25;;;1.40;;
78618;SDS011;67941;52.506;5.470;2023-05-07T14:00:55;4.13;;;1.80;;
78618;SDS011;67941;52.506;5.470;2023-05-07T14:03:24;4.70;;;2.33;;
78618;SDS011;67941;52.506;5.470;2023-05-07T14:05:53;5.97;;;2.58;;
78618;SDS011;67941;52.506;5.470;2023-05-07T14:08:23;6.57;;;2.80;;
78618;SDS011;67941;52.506;5.470;2023-05-07T14:10:52;8.13;;;4.10;;
78618;SDS011;67941;52.506;5.470;2023-05-07T14:13:23;7.18;;;3.50;;
78618;SDS011;67941;52.506;5.470;2023-05-07T14:15:52;7.90;;;3.30;;
78618;SDS011;67941;52.506;5.470;2023-05-07T14:18:21;7.13;;;3.10;;
78618;SDS011;67941;52.506;5.470;2023-05-07T14:20:50;8.43;;;3.55;;
78618;SDS011;67941;52.506;5.470;2023-05-07T14:23:19;6.53;;;3.25;;
78618;SDS011;67941;52.506;5.470;2023-05-07T14:25:51;7.70;;;3.20;;
78618;SDS011;67941;52.506;5.470;2023-05-07T14:28:25;7.63;;;3.75;;
78618;SDS011;67941;52.506;5.470;2023-05-07T14:30:53;7.38;;;3.10;;
78618;SDS011;67941;52.506;5.470;2023-05-07T14:33:22;8.63;;;3.90;;
78618;SDS011;67941;52.506;5.470;2023-05-07T14:35:51;8.57;;;3.78;;
78618;SDS011;67941;52.506;5.470;2023-05-07T14:38:20;7.75;;;3.38;;
78618;SDS011;67941;52.506;5.470;2023-05-07T14:40:49;8.02;;;3.72;;
78618;SDS011;67941;52.506;5.470;2023-05-07T14:43:21;6.18;;;2.33;;
78618;SDS011;67941;52.506;5.470;2023-05-07T14:45:52;7.30;;;3.33;;
78618;SDS011;67941;52.506;5.470;2023-05-07T14:48:21;7.55;;;3.10;;
78618;SDS011;67941;52.506;5.470;2023-05-07T14:50:50;8.32;;;3.30;;
78618;SDS011;67941;52.506;5.470;2023-05-07T14:53:18;6.93;;;3.20;;
78618;SDS011;67941;52.506;5.470;2023-05-07T14:55:47;8.05;;;3.88;;
78618;SDS011;67941;52.506;5.470;2023-05-07T14:58:16;6.40;;;2.92;;
78618;SDS011;67941;52.506;5.470;2023-05-07T15:00:45;8.30;;;3.47;;
78618;SDS011;67941;52.506;5.470;2023-05-07T15:03:17;7.35;;;3.10;;
78618;SDS011;67941;52.506;5.470;2023-05-07T15:05:47;7.82;;;3.65;;
78618;SDS011;67941;52.506;5.470;2023-05-07T15:08:16;6.35;;;2.75;;
78618;SDS011;67941;52.506;5.470;2023-05-07T15:10:45;8.48;;;3.40;;
78618;SDS011;67941;52.506;5.470;2023-05-07T15:13:14;7.68;;;3.00;;
78618;SDS011;67941;52.506;5.470;2023-05-07T15:15:43;5.90;;;2.63;;
78618;SDS011;67941;52.506;5.470;2023-05-07T15:18:12;6.85;;;3.22;;
78618;SDS011;67941;52.506;5.470;2023-05-07T15:20:44;7.18;;;3.50;;
78618;SDS011;67941;52.506;5.470;2023-05-07T15:23:13;6.55;;;2.67;;
78618;SDS011;67941;52.506;5.470;2023-05-07T15:25:45;6.18;;;3.17;;